Time;durP1;ratioP1;P1;durP2;ratioP2;P2;SDS_P1;SDS_P2;PMS_P1;PMS_P2;Temp;Humidity;BMP_temperature;BMP_pressure;BME280_temperature;BME280_humidity;BME280_pressure;Samples;Min_cycle;Max_cycle;Signal;HPM_P1;HPM_P2
2021/12/16 00:01:51;;;;;;;255.48;24.30;;;;;;;;;;8237627;28;20542;-74
2021/12/16 00:10:21;;;;;;;257.17;23.23;;;;;;;;;;8237197;28;20051;-74
2021/12/16 00:31:55;;;;;;;267.67;21.73;;;;;;;;;;8237348;28;20046;-74
2021/12/16 00:36:01;;;;;;;295.00;23.02;;;;;;;;;;8236727;28;20058;-74
2021/12/16 00:40:07;;;;;;;244.60;21.17;;;;;;;;;;8237034;28;20046;-74
2021/12/16 00:44:20;;;;;;;243.50;22.38;;;;;;;;;;8236408;28;20054;-74
2021/12/16 00:48:26;;;;;;;191.82;20.92;;;;;;;;;;8236822;28;20054;-73
2021/12/16 00:56:58;;;;;;;213.85;24.48;;;;;;;;;;8236037;28;20046;-74
2021/12/16 01:01:09;;;;;;;215.98;22.23;;;;;;;;;;8235772;28;20065;-74
2021/12/16 01:05:46;;;;;;;212.32;22.20;;;;;;;;;;8235780;28;20093;-74
2021/12/16 01:36:10;;;;;;;174.02;21.50;;;;;;;;;;8179993;28;20396;-75
2021/12/16 01:40:32;;;;;;;173.13;17.65;;;;;;;;;;8234532;28;20055;-74
2021/12/16 01:49:29;;;;;;;148.15;16.50;;;;;;;;;;8234480;28;20047;-74
2021/12/16 01:54:02;;;;;;;173.48;18.88;;;;;;;;;;8234250;28;20403;-73
2021/12/16 01:58:13;;;;;;;243.73;21.05;;;;;;;;;;8234050;28;20055;-74
2021/12/16 02:02:33;;;;;;;153.93;19.02;;;;;;;;;;8234345;28;20141;-74
2021/12/16 02:06:47;;;;;;;305.13;21.65;;;;;;;;;;8234054;28;20158;-73
2021/12/16 02:11:03;;;;;;;259.02;19.00;;;;;;;;;;8233929;28;20082;-73
2021/12/16 02:28:23;;;;;;;234.77;19.73;;;;;;;;;;8233625;28;20458;-73
2021/12/16 02:32:43;;;;;;;183.05;19.35;;;;;;;;;;8233470;28;20294;-73
2021/12/16 02:36:46;;;;;;;188.13;17.92;;;;;;;;;;8233291;28;20053;-73
2021/12/16 02:40:52;;;;;;;214.82;17.02;;;;;;;;;;8233217;28;20065;-73
2021/12/16 02:49:16;;;;;;;164.15;17.05;;;;;;;;;;8233256;28;20522;-73
2021/12/16 02:53:19;;;;;;;190.32;16.70;;;;;;;;;;8233087;28;20682;-73
2021/12/16 02:57:24;;;;;;;234.85;21.10;;;;;;;;;;8232896;28;20057;-74
2021/12/16 03:01:30;;;;;;;226.30;19.08;;;;;;;;;;8233386;28;20081;-74
2021/12/16 03:05:34;;;;;;;158.93;19.30;;;;;;;;;;8233520;28;20067;-74
2021/12/16 03:14:20;;;;;;;194.60;17.40;;;;;;;;;;8220153;28;20051;-74
2021/12/16 03:18:33;;;;;;;189.25;20.02;;;;;;;;;;8232760;28;20279;-73
2021/12/16 03:22:51;;;;;;;275.00;22.95;;;;;;;;;;8232564;28;20054;-73
2021/12/16 03:27:26;;;;;;;159.80;18.92;;;;;;;;;;8233085;28;20078;-73
2021/12/16 03:31:49;;;;;;;209.23;20.52;;;;;;;;;;8232548;28;20047;-73
2021/12/16 03:36:04;;;;;;;173.40;18.42;;;;;;;;;;8236283;28;20050;-74
2021/12/16 03:40:11;;;;;;;198.65;18.67;;;;;;;;;;8238270;28;20060;-74
2021/12/16 03:44:18;;;;;;;218.30;21.42;;;;;;;;;;8238232;28;20043;-74
2021/12/16 03:48:29;;;;;;;182.27;17.70;;;;;;;;;;8238659;28;20046;-74
2021/12/16 03:52:32;;;;;;;228.13;19.15;;;;;;;;;;8237923;28;20074;-74
2021/12/16 03:56:35;;;;;;;211.93;19.23;;;;;;;;;;8237724;28;20070;-74
2021/12/16 04:00:43;;;;;;;170.05;18.88;;;;;;;;;;8238097;28;20081;-74
2021/12/16 04:04:51;;;;;;;252.48;23.25;;;;;;;;;;8237594;28;20043;-74
2021/12/16 04:08:54;;;;;;;167.27;19.83;;;;;;;;;;8237587;28;20071;-75
2021/12/16 04:12:59;;;;;;;157.73;23.58;;;;;;;;;;8237457;28;20061;-74
2021/12/16 04:17:04;;;;;;;146.10;20.75;;;;;;;;;;8237261;28;20054;-74
2021/12/16 04:21:08;;;;;;;139.75;22.02;;;;;;;;;;8237069;28;20050;-74
2021/12/16 04:25:15;;;;;;;166.60;23.67;;;;;;;;;;8237046;28;20057;-74
2021/12/16 04:29:18;;;;;;;151.43;21.83;;;;;;;;;;8237414;28;20050;-74
2021/12/16 04:33:21;;;;;;;169.50;32.60;;;;;;;;;;8236630;28;20134;-76
2021/12/16 04:37:26;;;;;;;130.13;24.60;;;;;;;;;;8236924;28;20093;-74
2021/12/16 04:41:29;;;;;;;136.23;24.20;;;;;;;;;;8236845;28;20147;-74
2021/12/16 04:45:34;;;;;;;167.80;24.42;;;;;;;;;;8235240;28;20078;-74
2021/12/16 04:49:38;;;;;;;143.73;23.77;;;;;;;;;;8237064;28;20051;-75
2021/12/16 04:53:43;;;;;;;134.55;24.25;;;;;;;;;;8236593;28;20502;-74
2021/12/16 04:57:46;;;;;;;148.70;24.88;;;;;;;;;;8236103;28;20050;-73
2021/12/16 05:01:52;;;;;;;177.35;28.17;;;;;;;;;;8235848;28;20047;-74
2021/12/16 05:05:55;;;;;;;134.02;26.67;;;;;;;;;;8235781;28;20042;-76
2021/12/16 05:10:09;;;;;;;140.50;23.45;;;;;;;;;;8235464;28;20059;-75
2021/12/16 05:14:18;;;;;;;140.32;24.73;;;;;;;;;;8235484;28;20039;-75
2021/12/16 05:18:25;;;;;;;137.45;23.50;;;;;;;;;;8235400;28;20050;-75
2021/12/16 05:26:49;;;;;;;118.82;22.23;;;;;;;;;;8235631;28;20058;-74
2021/12/16 05:30:54;;;;;;;126.78;23.58;;;;;;;;;;8235022;28;20081;-74
2021/12/16 05:34:57;;;;;;;157.10;27.15;;;;;;;;;;8234855;28;20070;-74
2021/12/16 05:39:01;;;;;;;142.13;27.83;;;;;;;;;;8235598;28;20046;-74
2021/12/16 05:43:08;;;;;;;133.95;30.02;;;;;;;;;;8234524;28;20051;-75
2021/12/16 05:47:11;;;;;;;127.50;27.90;;;;;;;;;;8235020;28;20055;-76
2021/12/16 05:51:18;;;;;;;137.73;32.65;;;;;;;;;;8234267;28;20566;-75
2021/12/16 05:55:22;;;;;;;130.35;26.95;;;;;;;;;;8234275;28;20101;-75
2021/12/16 05:59:27;;;;;;;149.25;27.05;;;;;;;;;;8233697;28;20147;-75
2021/12/16 06:03:32;;;;;;;162.43;31.63;;;;;;;;;;8234609;28;20543;-75
2021/12/16 06:07:35;;;;;;;149.32;27.52;;;;;;;;;;8233975;28;20078;-74
2021/12/16 06:11:42;;;;;;;125.03;26.45;;;;;;;;;;8233885;28;20146;-75
2021/12/16 06:16:01;;;;;;;145.90;27.73;;;;;;;;;;8234256;28;20403;-75
2021/12/16 06:28:47;;;;;;;138.30;27.92;;;;;;;;;;8233991;28;20097;-75
2021/12/16 06:32:52;;;;;;;117.03;24.92;;;;;;;;;;8233474;28;20046;-75
2021/12/16 06:36:55;;;;;;;152.80;31.08;;;;;;;;;;8233333;28;20062;-75
2021/12/16 06:40:58;;;;;;;127.70;27.52;;;;;;;;;;8233617;28;20506;-75
2021/12/16 06:45:05;;;;;;;123.93;27.00;;;;;;;;;;8233622;28;20055;-75
2021/12/16 06:49:12;;;;;;;118.43;27.30;;;;;;;;;;8233197;28;20047;-75
2021/12/16 06:53:22;;;;;;;134.05;29.58;;;;;;;;;;8233605;28;20499;-76
2021/12/16 06:57:36;;;;;;;144.10;29.35;;;;;;;;;;8232949;28;20043;-75
2021/12/16 07:01:41;;;;;;;139.52;29.80;;;;;;;;;;8233206;28;20217;-75
2021/12/16 07:05:47;;;;;;;155.10;32.13;;;;;;;;;;8232777;28;20329;-76
2021/12/16 07:09:50;;;;;;;129.10;30.67;;;;;;;;;;8234561;28;20102;-75
2021/12/16 07:13:59;;;;;;;140.38;33.50;;;;;;;;;;8239398;28;20047;-75
2021/12/16 07:18:02;;;;;;;136.90;32.40;;;;;;;;;;8239305;28;20129;-75
2021/12/16 07:22:08;;;;;;;126.85;28.33;;;;;;;;;;8218764;28;20553;-75
2021/12/16 07:26:10;;;;;;;126.78;27.35;;;;;;;;;;8228375;28;20100;-75
2021/12/16 07:30:16;;;;;;;125.75;31.50;;;;;;;;;;8252052;28;20129;-80
2021/12/16 07:34:19;;;;;;;111.28;28.92;;;;;;;;;;8231846;28;20055;-74
2021/12/16 07:38:24;;;;;;;110.25;27.15;;;;;;;;;;8230208;28;20487;-74
2021/12/16 07:42:32;;;;;;;100.88;26.90;;;;;;;;;;8218180;28;20059;-74
2021/12/16 07:46:35;;;;;;;132.23;30.75;;;;;;;;;;8216416;28;20098;-74
2021/12/16 07:50:40;;;;;;;124.80;35.22;;;;;;;;;;8206350;29;20055;-74
2021/12/16 07:54:45;;;;;;;99.18;28.35;;;;;;;;;;8215454;28;20089;-75
2021/12/16 07:58:48;;;;;;;101.30;30.05;;;;;;;;;;8237645;28;20051;-75
2021/12/16 08:02:51;;;;;;;124.43;31.63;;;;;;;;;;8237876;28;20515;-74
2021/12/16 08:06:58;;;;;;;100.32;28.55;;;;;;;;;;8228958;28;20125;-75
2021/12/16 08:11:05;;;;;;;84.43;27.45;;;;;;;;;;8228609;28;20815;-75
2021/12/16 08:15:09;;;;;;;94.75;28.27;;;;;;;;;;8233104;28;20101;-76
2021/12/16 08:19:12;;;;;;;91.18;25.73;;;;;;;;;;8247375;28;20403;-75
2021/12/16 08:23:15;;;;;;;96.38;26.55;;;;;;;;;;8241692;28;20061;-74
2021/12/16 08:27:21;;;;;;;104.18;28.30;;;;;;;;;;8241984;28;20047;-80
2021/12/16 08:31:26;;;;;;;91.45;25.77;;;;;;;;;;8243532;28;20494;-75
2021/12/16 08:35:30;;;;;;;89.43;26.08;;;;;;;;;;8244421;28;20435;-75
2021/12/16 08:39:33;;;;;;;94.90;26.95;;;;;;;;;;8262110;28;20498;-74
2021/12/16 08:43:40;;;;;;;86.40;26.90;;;;;;;;;;8259405;28;20054;-76
2021/12/16 08:47:44;;;;;;;90.80;28.90;;;;;;;;;;8260997;28;20050;-74
2021/12/16 08:51:50;;;;;;;84.32;30.70;;;;;;;;;;8265203;28;20055;-74
2021/12/16 08:55:54;;;;;;;91.13;29.30;;;;;;;;;;8246664;28;20051;-74
2021/12/16 08:59:59;;;;;;;78.22;27.98;;;;;;;;;;8234932;28;20046;-75
2021/12/16 09:04:02;;;;;;;68.20;26.05;;;;;;;;;;8235175;28;20071;-75
2021/12/16 09:08:06;;;;;;;60.70;23.10;;;;;;;;;;8235975;28;20487;-75
2021/12/16 09:12:25;;;;;;;60.92;24.30;;;;;;;;;;8235561;28;20475;-75
2021/12/16 09:16:33;;;;;;;58.38;23.55;;;;;;;;;;8235314;28;20075;-74
2021/12/16 09:20:37;;;;;;;67.00;24.25;;;;;;;;;;8235515;28;20436;-74
2021/12/16 09:24:41;;;;;;;49.20;20.65;;;;;;;;;;8235359;28;20118;-75
2021/12/16 09:28:44;;;;;;;57.60;23.83;;;;;;;;;;8218163;28;20047;-74
2021/12/16 09:32:51;;;;;;;48.92;21.35;;;;;;;;;;8234544;28;20073;-74
2021/12/16 09:36:54;;;;;;;52.33;22.10;;;;;;;;;;8234598;28;20098;-74
2021/12/16 09:40:59;;;;;;;52.75;23.00;;;;;;;;;;8234409;28;20133;-74
2021/12/16 09:45:02;;;;;;;48.97;21.15;;;;;;;;;;8234479;28;20129;-74
2021/12/16 09:49:08;;;;;;;48.95;19.83;;;;;;;;;;8234770;28;20071;-75
2021/12/16 09:53:11;;;;;;;39.33;19.67;;;;;;;;;;8234271;28;20129;-74
2021/12/16 09:57:17;;;;;;;44.50;20.58;;;;;;;;;;8234130;28;20054;-75
2021/12/16 10:01:23;;;;;;;45.13;19.85;;;;;;;;;;8233953;28;20188;-74
2021/12/16 10:05:31;;;;;;;42.00;19.77;;;;;;;;;;8234400;28;20077;-74
2021/12/16 10:09:34;;;;;;;45.53;21.00;;;;;;;;;;8234026;28;20495;-74
2021/12/16 10:13:45;;;;;;;49.00;20.65;;;;;;;;;;8234007;28;20054;-74
2021/12/16 10:17:48;;;;;;;42.88;19.25;;;;;;;;;;8233664;28;20097;-75
2021/12/16 10:21:55;;;;;;;52.17;19.80;;;;;;;;;;8233330;28;20542;-75
2021/12/16 10:25:59;;;;;;;40.40;18.95;;;;;;;;;;8233558;28;20082;-73
2021/12/16 10:30:08;;;;;;;37.70;16.35;;;;;;;;;;8228962;28;20051;-75
2021/12/16 10:34:12;;;;;;;40.08;16.67;;;;;;;;;;8259164;28;20133;-75
2021/12/16 10:38:19;;;;;;;31.58;15.15;;;;;;;;;;8239436;28;20050;-75
2021/12/16 10:42:22;;;;;;;33.05;15.23;;;;;;;;;;8230729;28;20149;-74
2021/12/16 10:46:28;;;;;;;33.65;14.57;;;;;;;;;;8265544;28;20046;-74
2021/12/16 10:50:49;;;;;;;31.08;13.48;;;;;;;;;;8239266;28;20442;-73
2021/12/16 10:54:55;;;;;;;28.30;12.57;;;;;;;;;;8254934;28;20050;-75
2021/12/16 10:59:00;;;;;;;26.42;12.73;;;;;;;;;;8271389;28;20046;-73
2021/12/16 11:03:04;;;;;;;37.78;16.27;;;;;;;;;;8228385;28;20147;-74
2021/12/16 11:07:14;;;;;;;38.47;14.90;;;;;;;;;;8217138;28;20058;-73
2021/12/16 11:11:27;;;;;;;38.50;16.02;;;;;;;;;;8229886;28;20058;-75
2021/12/16 11:15:32;;;;;;;36.42;16.38;;;;;;;;;;8209845;28;20373;-79
2021/12/16 11:19:45;;;;;;;44.85;17.77;;;;;;;;;;8205320;29;20047;-77
2021/12/16 11:23:50;;;;;;;41.53;19.15;;;;;;;;;;8205277;29;20146;-74
2021/12/16 11:28:06;;;;;;;49.95;20.08;;;;;;;;;;8206472;29;20043;-79
2021/12/16 11:32:09;;;;;;;56.90;21.75;;;;;;;;;;8206573;29;20117;-74
2021/12/16 11:36:16;;;;;;;51.22;21.25;;;;;;;;;;8211670;28;20043;-74
2021/12/16 11:40:22;;;;;;;56.17;21.75;;;;;;;;;;8232719;28;20046;-79
2021/12/16 11:44:33;;;;;;;48.28;19.27;;;;;;;;;;8230574;28;20062;-77
2021/12/16 11:48:40;;;;;;;44.95;17.60;;;;;;;;;;8249495;28;20049;-77
2021/12/16 11:52:45;;;;;;;46.53;18.92;;;;;;;;;;8241490;28;20073;-79
2021/12/16 11:56:53;;;;;;;48.25;19.55;;;;;;;;;;8231088;28;20051;-78
2021/12/16 12:00:59;;;;;;;59.90;21.55;;;;;;;;;;8205886;29;20043;-75
2021/12/16 12:05:17;;;;;;;59.33;21.85;;;;;;;;;;8528362;23;22148;-74
2021/12/16 12:09:35;;;;;;;80.20;24.33;;;;;;;;;;8301734;28;20054;-74
2021/12/16 12:13:42;;;;;;;43.35;17.33;;;;;;;;;;8300676;28;20386;-73
2021/12/16 12:17:52;;;;;;;52.28;19.42;;;;;;;;;;8280750;28;20061;-74
2021/12/16 12:22:00;;;;;;;59.10;21.85;;;;;;;;;;8266534;28;20110;-73
2021/12/16 12:26:08;;;;;;;64.75;26.80;;;;;;;;;;8267828;28;20104;-79
2021/12/16 12:30:14;;;;;;;60.55;25.05;;;;;;;;;;8269008;28;20042;-74
2021/12/16 12:34:23;;;;;;;43.75;16.13;;;;;;;;;;8268508;28;20065;-73
2021/12/16 12:38:28;;;;;;;43.22;17.92;;;;;;;;;;8282555;28;20481;-74
2021/12/16 12:42:33;;;;;;;61.30;23.38;;;;;;;;;;8294062;28;20042;-74
2021/12/16 12:46:39;;;;;;;63.25;25.13;;;;;;;;;;8297526;28;20042;-73
2021/12/16 12:50:50;;;;;;;53.42;20.00;;;;;;;;;;8296777;28;20103;-74
2021/12/16 12:55:06;;;;;;;52.50;20.15;;;;;;;;;;8299376;28;20306;-82
2021/12/16 12:59:18;;;;;;;60.72;22.10;;;;;;;;;;8281088;28;20052;-82
2021/12/16 13:03:28;;;;;;;63.47;20.73;;;;;;;;;;8297831;28;20504;-73
2021/12/16 13:07:37;;;;;;;68.28;24.23;;;;;;;;;;8295510;28;20042;-78
2021/12/16 13:11:40;;;;;;;79.63;25.23;;;;;;;;;;8294063;28;20034;-74
2021/12/16 13:15:50;;;;;;;61.25;21.45;;;;;;;;;;8269941;28;20065;-73
2021/12/16 13:24:31;;;;;;;;;;;;;;;;;;8274200;28;20367;-73
2021/12/16 13:28:44;;;;;;;85.85;29.90;;;;;;;;;;8291995;28;19921;-76
2021/12/16 13:33:15;;;;;;;83.45;31.38;;;;;;;;;;8287182;28;20092;-75
2021/12/16 13:37:24;;;;;;;84.53;28.80;;;;;;;;;;8291376;28;20049;-74
2021/12/16 13:41:31;;;;;;;77.43;23.88;;;;;;;;;;8297105;28;20080;-81
2021/12/16 13:45:42;;;;;;;80.00;25.02;;;;;;;;;;8295013;28;20037;-74
2021/12/16 14:03:19;;;;;;;75.68;25.80;;;;;;;;;;8294992;28;20049;-80
2021/12/16 14:07:54;;;;;;;55.63;23.38;;;;;;;;;;8287906;28;20411;-72
2021/12/16 14:16:55;;;;;;;110.85;44.45;;;;;;;;;;8496748;27;20365;-80
2021/12/16 14:25:29;;;;;;;69.18;24.75;;;;;;;;;;8489588;28;20344;-73
2021/12/16 14:38:39;;;;;;;86.47;30.98;;;;;;;;;;8487874;28;20445;-74
2021/12/16 14:42:48;;;;;;;99.75;37.78;;;;;;;;;;8488991;28;20442;-82
2021/12/16 14:47:04;;;;;;;91.15;34.80;;;;;;;;;;8488840;28;20063;-78
2021/12/16 14:51:12;;;;;;;68.22;27.75;;;;;;;;;;8492273;28;20538;-73
2021/12/16 14:55:19;;;;;;;63.25;26.95;;;;;;;;;;8491510;28;20391;-72
2021/12/16 14:59:23;;;;;;;65.13;24.70;;;;;;;;;;8491345;28;20095;-72
2021/12/16 15:03:29;;;;;;;51.78;22.92;;;;;;;;;;8491440;28;20043;-72
2021/12/16 15:07:34;;;;;;;49.70;20.13;;;;;;;;;;8485416;28;20510;-80
2021/12/16 15:11:47;;;;;;;63.10;27.40;;;;;;;;;;8488040;28;20043;-74
2021/12/16 15:43:00;;;;;;;58.92;25.60;;;;;;;;;;8453994;28;20429;-82
2021/12/16 15:47:04;;;;;;;54.80;24.13;;;;;;;;;;8444651;28;20044;-77
2021/12/16 15:51:12;;;;;;;50.95;22.27;;;;;;;;;;8449143;28;20126;-72
2021/12/16 15:55:34;;;;;;;58.28;23.80;;;;;;;;;;8455200;28;20092;-73
2021/12/16 16:04:07;;;;;;;52.25;22.48;;;;;;;;;;8449558;28;20062;-74
2021/12/16 16:08:15;;;;;;;76.38;28.60;;;;;;;;;;8460174;28;20441;-80
2021/12/16 16:12:29;;;;;;;52.15;23.80;;;;;;;;;;8445595;28;20035;-75
2021/12/16 16:16:39;;;;;;;;;;;;;;;;;;8451275;28;20055;-75
2021/12/16 16:20:49;;;;;;;54.35;25.30;;;;;;;;;;8454247;28;20047;-79
2021/12/16 16:24:55;;;;;;;38.53;17.88;;;;;;;;;;8462044;28;20055;-72
2021/12/16 16:29:02;;;;;;;31.17;15.43;;;;;;;;;;8443493;28;20069;-73
2021/12/16 16:33:11;;;;;;;22.75;12.68;;;;;;;;;;8442105;28;20039;-73
2021/12/16 16:37:21;;;;;;;23.58;12.35;;;;;;;;;;8443103;28;20109;-74
2021/12/16 16:41:29;;;;;;;24.58;12.18;;;;;;;;;;8447806;28;20089;-73
2021/12/16 16:45:33;;;;;;;29.25;14.27;;;;;;;;;;8457524;28;20074;-73
2021/12/16 16:49:49;;;;;;;32.30;14.90;;;;;;;;;;8455194;28;20049;-74
2021/12/16 16:54:02;;;;;;;31.13;15.55;;;;;;;;;;8457214;28;20052;-73
2021/12/16 16:58:17;;;;;;;34.33;14.23;;;;;;;;;;8453170;28;20075;-73
2021/12/16 17:02:30;;;;;;;32.70;16.25;;;;;;;;;;8460491;28;20126;-73
2021/12/16 17:06:35;;;;;;;43.55;19.70;;;;;;;;;;8462264;28;20039;-73
2021/12/16 17:10:47;;;;;;;37.60;17.50;;;;;;;;;;8462970;28;21277;-75
2021/12/16 17:15:00;;;;;;;75.18;30.45;;;;;;;;;;8457036;28;20391;-73
2021/12/16 17:19:04;;;;;;;58.83;20.67;;;;;;;;;;8459863;28;20040;-73
2021/12/16 17:23:13;;;;;;;43.85;17.52;;;;;;;;;;8458659;28;20039;-74
2021/12/16 17:27:20;;;;;;;35.22;17.77;;;;;;;;;;8460913;28;20080;-74
2021/12/16 17:31:42;;;;;;;32.75;14.70;;;;;;;;;;8453212;28;20040;-73
2021/12/16 17:35:49;;;;;;;25.88;13.23;;;;;;;;;;8456499;28;20043;-73
2021/12/16 17:40:01;;;;;;;22.20;11.93;;;;;;;;;;8464494;28;20055;-74
2021/12/16 17:44:12;;;;;;;24.40;12.93;;;;;;;;;;8463615;28;20066;-79
2021/12/16 17:48:25;;;;;;;27.95;14.32;;;;;;;;;;8463101;28;20557;-78
2021/12/16 17:52:30;;;;;;;36.70;16.77;;;;;;;;;;8437901;28;20044;-74
2021/12/16 17:56:35;;;;;;;34.30;17.20;;;;;;;;;;8463054;28;20043;-73
2021/12/16 18:00:42;;;;;;;25.15;13.23;;;;;;;;;;8454970;28;20048;-73
2021/12/16 18:04:49;;;;;;;26.05;13.80;;;;;;;;;;8449962;28;20131;-78
2021/12/16 18:08:58;;;;;;;20.50;10.18;;;;;;;;;;8436263;28;20047;-73
2021/12/16 18:13:07;;;;;;;23.25;11.27;;;;;;;;;;8434385;28;20052;-73
2021/12/16 18:17:19;;;;;;;23.60;11.90;;;;;;;;;;8433545;28;20048;-73
2021/12/16 18:21:38;;;;;;;26.63;11.98;;;;;;;;;;8445190;28;20823;-78
2021/12/16 18:25:46;;;;;;;18.83;11.15;;;;;;;;;;8442318;28;20048;-74
2021/12/16 18:29:58;;;;;;;28.63;13.07;;;;;;;;;;8460613;28;20055;-79
2021/12/16 18:34:13;;;;;;;34.05;12.00;;;;;;;;;;8447693;28;20502;-73
2021/12/16 18:38:24;;;;;;;29.27;12.88;;;;;;;;;;8425660;28;20556;-73
2021/12/16 18:42:49;;;;;;;39.90;14.13;;;;;;;;;;8449140;28;20070;-77
2021/12/16 18:46:57;;;;;;;43.17;15.73;;;;;;;;;;8427337;28;20044;-80
2021/12/16 18:51:22;;;;;;;26.15;11.43;;;;;;;;;;8443389;28;20050;-81
2021/12/16 18:55:33;;;;;;;24.05;10.90;;;;;;;;;;8441168;28;20047;-73
2021/12/16 18:59:45;;;;;;;26.98;11.85;;;;;;;;;;8437009;28;20059;-74
2021/12/16 19:04:00;;;;;;;23.67;10.93;;;;;;;;;;8442498;28;20056;-73
2021/12/16 19:08:07;;;;;;;28.08;11.30;;;;;;;;;;8438293;28;20449;-74
2021/12/16 19:12:16;;;;;;;26.10;11.50;;;;;;;;;;8437518;28;21362;-74
2021/12/16 19:16:39;;;;;;;21.73;11.27;;;;;;;;;;8440784;28;20147;-73
2021/12/16 19:20:50;;;;;;;33.00;12.20;;;;;;;;;;8441625;28;20130;-77
2021/12/16 19:25:04;;;;;;;29.65;13.20;;;;;;;;;;8444260;28;20044;-73
2021/12/16 19:29:14;;;;;;;27.38;13.13;;;;;;;;;;8442786;28;20040;-74
2021/12/16 19:33:27;;;;;;;27.77;12.20;;;;;;;;;;8442380;28;20445;-73
2021/12/16 19:37:37;;;;;;;23.08;11.05;;;;;;;;;;8432618;28;20105;-79
2021/12/16 19:42:08;;;;;;;27.85;11.93;;;;;;;;;;8431190;28;20082;-80
2021/12/16 19:46:35;;;;;;;32.47;14.98;;;;;;;;;;8456937;28;20048;-74
2021/12/16 19:50:55;;;;;;;34.95;15.70;;;;;;;;;;8450842;28;20048;-73
2021/12/16 19:55:17;;;;;;;33.63;14.33;;;;;;;;;;8438965;28;20058;-79
2021/12/16 19:59:37;;;;;;;37.50;13.23;;;;;;;;;;8437498;28;20098;-73
2021/12/16 20:03:55;;;;;;;33.40;12.43;;;;;;;;;;8437682;28;20051;-79
2021/12/16 20:08:10;;;;;;;35.25;14.88;;;;;;;;;;8440575;28;20093;-81
2021/12/16 20:12:36;;;;;;;28.33;13.90;;;;;;;;;;8441013;28;20045;-73
2021/12/16 20:16:50;;;;;;;28.20;13.38;;;;;;;;;;8436951;28;20055;-81
2021/12/16 20:21:10;;;;;;;22.85;10.50;;;;;;;;;;8435526;28;20044;-73
2021/12/16 20:25:47;;;;;;;19.17;8.80;;;;;;;;;;8442972;28;20036;-74
2021/12/16 20:29:58;;;;;;;21.50;9.07;;;;;;;;;;8438442;28;20452;-82
2021/12/16 20:34:13;;;;;;;21.40;9.13;;;;;;;;;;8428699;28;20072;-75
2021/12/16 20:38:22;;;;;;;19.67;8.23;;;;;;;;;;8429214;28;20044;-79
2021/12/16 20:42:30;;;;;;;20.83;9.25;;;;;;;;;;8432089;28;20040;-73
2021/12/16 20:46:38;;;;;;;25.52;11.65;;;;;;;;;;8432313;28;20379;-73
2021/12/16 20:50:42;;;;;;;19.13;9.27;;;;;;;;;;8432434;28;20147;-73
2021/12/16 20:54:50;;;;;;;26.55;11.40;;;;;;;;;;8432595;28;20055;-74
2021/12/16 20:58:57;;;;;;;22.45;8.23;;;;;;;;;;8432772;28;20498;-75
2021/12/16 21:03:03;;;;;;;14.90;7.13;;;;;;;;;;8432258;28;20085;-73
2021/12/16 21:07:07;;;;;;;20.40;8.15;;;;;;;;;;8432139;28;20135;-73
2021/12/16 21:11:14;;;;;;;22.75;9.27;;;;;;;;;;8432484;28;20051;-72
2021/12/16 21:15:18;;;;;;;21.90;9.52;;;;;;;;;;8431734;28;20056;-73
2021/12/16 21:19:24;;;;;;;22.55;9.75;;;;;;;;;;8431577;28;20044;-74
2021/12/16 21:23:29;;;;;;;27.58;10.63;;;;;;;;;;8431306;28;20443;-75
2021/12/16 21:27:33;;;;;;;19.35;9.18;;;;;;;;;;8441213;28;20509;-79
2021/12/16 21:31:37;;;;;;;27.13;9.57;;;;;;;;;;8465262;28;20482;-77
2021/12/16 21:35:46;;;;;;;23.65;9.48;;;;;;;;;;8473896;28;20057;-73
2021/12/16 21:39:51;;;;;;;25.92;10.65;;;;;;;;;;8493645;28;20051;-72
2021/12/16 21:43:54;;;;;;;33.38;9.68;;;;;;;;;;8494914;28;20043;-73
2021/12/16 21:47:57;;;;;;;37.75;11.80;;;;;;;;;;8494536;28;20041;-76
2021/12/16 21:52:04;;;;;;;26.45;10.98;;;;;;;;;;8477577;28;20051;-81
2021/12/16 21:56:09;;;;;;;27.40;10.77;;;;;;;;;;8469365;28;20103;-72
2021/12/16 22:00:21;;;;;;;21.20;9.00;;;;;;;;;;8464384;28;20050;-72
2021/12/16 22:04:26;;;;;;;19.58;7.88;;;;;;;;;;8464519;28;20078;-72
2021/12/16 22:08:31;;;;;;;21.08;6.65;;;;;;;;;;8465348;28;20483;-75
2021/12/16 22:12:35;;;;;;;15.45;6.30;;;;;;;;;;8465768;28;20051;-73
2021/12/16 22:16:39;;;;;;;13.23;5.70;;;;;;;;;;8465377;28;20055;-72
2021/12/16 22:20:45;;;;;;;19.00;6.97;;;;;;;;;;8464708;28;20049;-77
2021/12/16 22:24:51;;;;;;;17.60;7.65;;;;;;;;;;8463892;28;20048;-80
2021/12/16 22:28:55;;;;;;;24.38;9.38;;;;;;;;;;8463735;28;20468;-72
2021/12/16 22:32:59;;;;;;;21.95;7.00;;;;;;;;;;8464179;28;20044;-76
2021/12/16 22:37:06;;;;;;;19.25;6.85;;;;;;;;;;8468381;28;20054;-72
2021/12/16 22:41:14;;;;;;;19.67;6.00;;;;;;;;;;8470404;28;20048;-77
2021/12/16 22:45:17;;;;;;;17.30;5.50;;;;;;;;;;8470819;28;20039;-72
2021/12/16 22:49:20;;;;;;;14.55;5.43;;;;;;;;;;8470597;28;20419;-74
2021/12/16 22:53:23;;;;;;;21.35;5.90;;;;;;;;;;8470176;28;20055;-78
2021/12/16 22:57:30;;;;;;;13.65;6.20;;;;;;;;;;8470249;28;20048;-79
2021/12/16 23:01:35;;;;;;;20.35;7.65;;;;;;;;;;8469874;28;20436;-78
2021/12/16 23:05:39;;;;;;;27.35;8.05;;;;;;;;;;8470135;28;20505;-80
2021/12/16 23:09:42;;;;;;;27.50;9.02;;;;;;;;;;8469598;28;20470;-75
2021/12/16 23:13:50;;;;;;;26.42;8.80;;;;;;;;;;8469451;28;20051;-78
2021/12/16 23:18:22;;;;;;;25.67;7.82;;;;;;;;;;8469729;28;20101;-78
2021/12/16 23:26:45;;;;;;;26.02;8.30;;;;;;;;;;8469847;28;20051;-78
2021/12/16 23:30:50;;;;;;;22.90;8.65;;;;;;;;;;8469070;28;20051;-75
2021/12/16 23:34:53;;;;;;;17.80;7.38;;;;;;;;;;8468607;28;20051;-72
2021/12/16 23:38:59;;;;;;;11.13;5.35;;;;;;;;;;8468561;28;20043;-80
2021/12/16 23:43:59;;;;;;;15.88;6.05;;;;;;;;;;8469031;28;20462;-75
2021/12/16 23:56:30;;;;;;;17.23;5.57;;;;;;;;;;8449994;28;20036;-72
